KIJX

Jacksonville Municipal Airport

Jacksonville, Illinois, USA
METAR KIJX 191515Z AUTO 00000KT 10SM CLR 25/21 A2998 RMK AO2 T02500214
Observed Flight Rules
Aug-19 @ 15:15 UTC (22 minutes ago) Visual Flight Rules
Visibility Clouds
10 miles
  • Clear skies
Temperatures Readings
Current 25°C / 77°F
Dewpoint 21°C / 70°F
Humidity 79%
Altimeter 29.98" Hg
Pressure 1015 hPa
Elevation 190
METAR KIJX 191515Z AUTO 00000KT 10SM CLR 25/21 A2998 RMK AO2 T02500214
Observed Flight Rules
Aug-19 @ 15:15 UTC
(22 minutes ago)
VFR
Clouds
  • Clear skies
Temperature Dewpoint
25°C / 77°F 21°C / 70°F
Humidity Altimeter Pressure
79% 29.98" Hg 1015 hPa